IGO392F VOBL-VABB
Flight info
| Callsign | IGO392F |
|---|---|
| Flight time | 1h 28m |
| Altitude | 38000 |
| Route | VAGPU8A VAGPU Q8 AGELA MOLGO2A |
| Aircraft | A320/M-SDE3FGHIRWY/LB1 |
Departure
| Time | 2026-05-07 07:45 |
|---|---|
| Airport | Kempegowda International Airport Bengaluru (VOBL) |
Arrival
| Time | 2026-05-07 09:14 |
|---|---|
| Airport | Chhatrapati Shivaji Maharaj International Airport (VABB) |
| Time | Latitude | Longitude | Altitude | Speed | Heading |
|---|---|---|---|---|---|
| 2026-05-07 07:08 | 13.20186 | 77.71259 | 3011 ft | 0 kts | 180° |
| 2026-05-07 07:22 | 13.20190 | 77.71259 | 3011 ft | 2 kts | 173° |
| 2026-05-07 07:22 | 13.20196 | 77.71260 | 3011 ft | 3 kts | 121° |
| 2026-05-07 07:22 | 13.20208 | 77.71250 | 3011 ft | 3 kts | 155° |
| 2026-05-07 07:23 | 13.20225 | 77.71240 | 3011 ft | 3 kts | 139° |
| 2026-05-07 07:23 | 13.20237 | 77.71225 | 3013 ft | 3 kts | 108° |
| 2026-05-07 07:23 | 13.20240 | 77.71212 | 3015 ft | 1 kts | 90° |
| 2026-05-07 07:23 | 13.20240 | 77.71208 | 3016 ft | 0 kts | 90° |
| 2026-05-07 07:30 | 13.20240 | 77.71215 | 3015 ft | 2 kts | 91° |
| 2026-05-07 07:30 | 13.20240 | 77.71243 | 3011 ft | 5 kts | 91° |
| 2026-05-07 07:30 | 13.20265 | 77.71275 | 3011 ft | 7 kts | 19° |
| 2026-05-07 07:30 | 13.20326 | 77.71276 | 3013 ft | 10 kts | 1° |
| 2026-05-07 07:31 | 13.20407 | 77.71277 | 3011 ft | 13 kts | 1° |
| 2026-05-07 07:31 | 13.20429 | 77.71277 | 3011 ft | 0 kts | 1° |
| 2026-05-07 07:31 | 13.20433 | 77.71277 | 3011 ft | 2 kts | 1° |
| 2026-05-07 07:31 | 13.20461 | 77.71278 | 3011 ft | 7 kts | 0° |
| 2026-05-07 07:32 | 13.20520 | 77.71258 | 3011 ft | 12 kts | 306° |
| 2026-05-07 07:32 | 13.20525 | 77.71160 | 3011 ft | 15 kts | 269° |
| 2026-05-07 07:32 | 13.20527 | 77.71047 | 3011 ft | 17 kts | 271° |
| 2026-05-07 07:32 | 13.20528 | 77.70924 | 3011 ft | 18 kts | 270° |
| 2026-05-07 07:33 | 13.20530 | 77.70792 | 3011 ft | 19 kts | 270° |
| 2026-05-07 07:33 | 13.20531 | 77.70654 | 3011 ft | 20 kts | 270° |
| 2026-05-07 07:33 | 13.20532 | 77.70515 | 3011 ft | 18 kts | 270° |
| 2026-05-07 07:33 | 13.20532 | 77.70452 | 3011 ft | 0 kts | 270° |
| 2026-05-07 07:34 | 13.20532 | 77.70426 | 3011 ft | 8 kts | 270° |
| 2026-05-07 07:34 | 13.20533 | 77.70332 | 3011 ft | 18 kts | 270° |
| 2026-05-07 07:35 | 13.20534 | 77.70213 | 3012 ft | 12 kts | 270° |
| 2026-05-07 07:35 | 13.20536 | 77.70125 | 3012 ft | 13 kts | 271° |
| 2026-05-07 07:35 | 13.20537 | 77.70028 | 3012 ft | 14 kts | 271° |
| 2026-05-07 07:35 | 13.20537 | 77.69920 | 3011 ft | 16 kts | 269° |
| 2026-05-07 07:36 | 13.20537 | 77.69804 | 3011 ft | 17 kts | 270° |
| 2026-05-07 07:36 | 13.20539 | 77.69680 | 3011 ft | 18 kts | 270° |
| 2026-05-07 07:36 | 13.20540 | 77.69566 | 3011 ft | 16 kts | 270° |
| 2026-05-07 07:36 | 13.20541 | 77.69449 | 3011 ft | 17 kts | 270° |
| 2026-05-07 07:37 | 13.20542 | 77.69324 | 3011 ft | 18 kts | 270° |
| 2026-05-07 07:37 | 13.20543 | 77.69189 | 3011 ft | 20 kts | 270° |
| 2026-05-07 07:37 | 13.20545 | 77.69044 | 3011 ft | 21 kts | 271° |
| 2026-05-07 07:37 | 13.20546 | 77.68900 | 3011 ft | 20 kts | 270° |
| 2026-05-07 07:38 | 13.20547 | 77.68760 | 3011 ft | 20 kts | 270° |
| 2026-05-07 07:38 | 13.20553 | 77.68642 | 3011 ft | 17 kts | 293° |
| 2026-05-07 07:38 | 13.20612 | 77.68615 | 3012 ft | 0 kts | 2° |
| 2026-05-07 07:38 | 13.20615 | 77.68615 | 3012 ft | 2 kts | 2° |
| 2026-05-07 07:39 | 13.20639 | 77.68616 | 3012 ft | 5 kts | 2° |
| 2026-05-07 07:39 | 13.20687 | 77.68622 | 3011 ft | 9 kts | 17° |
| 2026-05-07 07:39 | 13.20720 | 77.68682 | 3011 ft | 12 kts | 90° |
| 2026-05-07 07:39 | 13.20720 | 77.68690 | 3011 ft | 0 kts | 90° |
| 2026-05-07 07:44 | 13.20720 | 77.68711 | 3011 ft | 18 kts | 90° |
| 2026-05-07 07:44 | 13.20715 | 77.69082 | 3011 ft | 83 kts | 90° |
| 2026-05-07 07:45 | 13.20709 | 77.69859 | 3011 ft | 132 kts | 90° |
| 2026-05-07 07:45 | 13.20700 | 77.70940 | 3012 ft | 169 kts | 90° |
| 2026-05-07 07:45 | 13.20669 | 77.72225 | 3291 ft | 187 kts | 90° |
| 2026-05-07 07:45 | 13.20804 | 77.73574 | 3854 ft | 192 kts | 69° |
| 2026-05-07 07:46 | 13.21450 | 77.74794 | 4365 ft | 202 kts | 57° |
| 2026-05-07 07:46 | 13.22290 | 77.76041 | 4540 ft | 224 kts | 55° |
| 2026-05-07 07:46 | 13.23226 | 77.77422 | 4748 ft | 249 kts | 56° |
| 2026-05-07 07:46 | 13.24224 | 77.78972 | 5163 ft | 268 kts | 59° |
| 2026-05-07 07:47 | 13.25221 | 77.80613 | 5897 ft | 273 kts | 60° |
| 2026-05-07 07:47 | 13.26266 | 77.82242 | 6636 ft | 277 kts | 48° |
| 2026-05-07 07:47 | 13.27883 | 77.83324 | 7323 ft | 284 kts | 18° |
| 2026-05-07 07:47 | 13.29856 | 77.83535 | 8065 ft | 288 kts | 2° |
| 2026-05-07 07:48 | 13.31856 | 77.83439 | 8853 ft | 291 kts | 350° |
| 2026-05-07 07:48 | 13.33758 | 77.82704 | 9592 ft | 296 kts | 332° |
| 2026-05-07 07:48 | 13.35557 | 77.81633 | 10176 ft | 305 kts | 332° |
| 2026-05-07 07:48 | 13.37468 | 77.80507 | 10324 ft | 328 kts | 332° |
| 2026-05-07 07:49 | 13.39492 | 77.79322 | 10687 ft | 341 kts | 332° |
| 2026-05-07 07:49 | 13.41571 | 77.78106 | 11251 ft | 346 kts | 332° |
| 2026-05-07 07:49 | 13.43667 | 77.76885 | 11835 ft | 350 kts | 332° |
| 2026-05-07 07:49 | 13.45794 | 77.75648 | 12449 ft | 353 kts | 332° |
| 2026-05-07 07:50 | 13.47943 | 77.74400 | 13040 ft | 357 kts | 332° |
| 2026-05-07 07:50 | 13.50116 | 77.73134 | 13617 ft | 361 kts | 331° |
| 2026-05-07 07:50 | 13.52275 | 77.71875 | 14150 ft | 364 kts | 330° |
| 2026-05-07 07:50 | 13.54508 | 77.70571 | 14697 ft | 366 kts | 331° |
| 2026-05-07 07:51 | 13.56702 | 77.69289 | 15237 ft | 368 kts | 331° |
| 2026-05-07 07:51 | 13.58961 | 77.67966 | 15795 ft | 370 kts | 331° |
| 2026-05-07 07:51 | 13.61170 | 77.66671 | 16329 ft | 372 kts | 330° |
| 2026-05-07 07:51 | 13.63425 | 77.65350 | 16870 ft | 374 kts | 331° |
| 2026-05-07 07:52 | 13.65689 | 77.64025 | 17386 ft | 376 kts | 330° |
| 2026-05-07 07:52 | 13.67972 | 77.62691 | 17912 ft | 378 kts | 331° |
| 2026-05-07 07:52 | 13.70261 | 77.61358 | 18421 ft | 379 kts | 331° |
| 2026-05-07 07:52 | 13.72566 | 77.60013 | 18838 ft | 382 kts | 331° |
| 2026-05-07 07:53 | 13.74890 | 77.58658 | 19218 ft | 386 kts | 331° |
| 2026-05-07 07:53 | 13.77232 | 77.57290 | 19614 ft | 389 kts | 330° |
| 2026-05-07 07:53 | 13.79622 | 77.55890 | 19756 ft | 401 kts | 330° |
| 2026-05-07 07:53 | 13.82080 | 77.54448 | 19874 ft | 412 kts | 330° |
| 2026-05-07 07:54 | 13.84606 | 77.52967 | 19995 ft | 423 kts | 331° |
| 2026-05-07 07:54 | 13.87185 | 77.51456 | 20104 ft | 432 kts | 330° |
| 2026-05-07 07:54 | 13.89818 | 77.49913 | 20338 ft | 437 kts | 330° |
| 2026-05-07 07:54 | 13.92473 | 77.48358 | 20576 ft | 443 kts | 330° |
| 2026-05-07 07:55 | 13.95175 | 77.46774 | 20700 ft | 450 kts | 330° |
| 2026-05-07 07:55 | 13.97917 | 77.45165 | 20820 ft | 457 kts | 330° |
| 2026-05-07 07:55 | 14.00698 | 77.43535 | 20940 ft | 463 kts | 330° |
| 2026-05-07 07:55 | 14.03517 | 77.41882 | 21053 ft | 469 kts | 330° |
| 2026-05-07 07:56 | 14.06366 | 77.40208 | 21169 ft | 474 kts | 330° |
| 2026-05-07 07:56 | 14.09243 | 77.38514 | 21290 ft | 478 kts | 330° |
| 2026-05-07 07:56 | 14.12134 | 77.36813 | 21418 ft | 481 kts | 330° |
| 2026-05-07 07:56 | 14.15049 | 77.35102 | 21584 ft | 483 kts | 330° |
| 2026-05-07 07:57 | 14.17969 | 77.33390 | 21785 ft | 484 kts | 330° |
| 2026-05-07 07:57 | 14.19910 | 77.32250 | 21902 ft | 485 kts | 330° |
| 2026-05-07 07:57 | 14.23838 | 77.29941 | 22133 ft | 487 kts | 330° |
| 2026-05-07 07:57 | 14.25791 | 77.28791 | 22250 ft | 488 kts | 330° |
| 2026-05-07 07:58 | 14.28740 | 77.27059 | 22448 ft | 489 kts | 330° |
| 2026-05-07 07:58 | 14.31704 | 77.25320 | 22635 ft | 490 kts | 330° |
| 2026-05-07 07:58 | 14.34668 | 77.23577 | 22827 ft | 491 kts | 330° |
| 2026-05-07 07:58 | 14.37638 | 77.21823 | 23013 ft | 492 kts | 330° |
| 2026-05-07 07:59 | 14.40611 | 77.20067 | 23193 ft | 494 kts | 330° |
| 2026-05-07 07:59 | 14.43596 | 77.18305 | 23370 ft | 495 kts | 330° |
| 2026-05-07 07:59 | 14.46590 | 77.16543 | 23537 ft | 496 kts | 330° |
| 2026-05-07 07:59 | 14.50568 | 77.14205 | 23744 ft | 498 kts | 330° |
| 2026-05-07 08:00 | 14.52602 | 77.13009 | 23852 ft | 498 kts | 330° |
| 2026-05-07 08:00 | 14.55618 | 77.11235 | 24015 ft | 499 kts | 330° |
| 2026-05-07 08:00 | 14.58645 | 77.09474 | 24172 ft | 501 kts | 332° |
| 2026-05-07 08:00 | 14.61878 | 77.08108 | 24307 ft | 503 kts | 340° |
| 2026-05-07 08:01 | 14.65184 | 77.06893 | 24463 ft | 505 kts | 340° |
| 2026-05-07 08:01 | 14.68500 | 77.05684 | 24653 ft | 506 kts | 340° |
| 2026-05-07 08:01 | 14.71820 | 77.04477 | 24899 ft | 505 kts | 340° |
| 2026-05-07 08:01 | 14.75130 | 77.03275 | 25155 ft | 505 kts | 340° |
| 2026-05-07 08:02 | 14.78444 | 77.02071 | 25419 ft | 504 kts | 340° |
| 2026-05-07 08:02 | 14.81745 | 77.00867 | 25686 ft | 503 kts | 340° |
| 2026-05-07 08:02 | 14.85046 | 76.99659 | 25962 ft | 503 kts | 340° |
| 2026-05-07 08:02 | 14.88343 | 76.98452 | 26250 ft | 502 kts | 340° |
| 2026-05-07 08:03 | 14.91636 | 76.97247 | 26545 ft | 502 kts | 340° |
| 2026-05-07 08:03 | 14.94882 | 76.96058 | 26832 ft | 501 kts | 340° |
| 2026-05-07 08:03 | 14.98167 | 76.94854 | 27122 ft | 501 kts | 340° |
| 2026-05-07 08:03 | 15.01447 | 76.93649 | 27433 ft | 500 kts | 340° |
| 2026-05-07 08:04 | 15.04724 | 76.92446 | 27752 ft | 500 kts | 340° |
| 2026-05-07 08:04 | 15.07997 | 76.91245 | 28070 ft | 499 kts | 340° |
| 2026-05-07 08:04 | 15.11270 | 76.90046 | 28391 ft | 498 kts | 340° |
| 2026-05-07 08:04 | 15.14541 | 76.88849 | 28711 ft | 498 kts | 340° |
| 2026-05-07 08:05 | 15.17814 | 76.87650 | 29041 ft | 497 kts | 340° |
| 2026-05-07 08:05 | 15.21078 | 76.86455 | 29399 ft | 497 kts | 340° |
| 2026-05-07 08:05 | 15.24330 | 76.85262 | 29761 ft | 496 kts | 340° |
| 2026-05-07 08:05 | 15.27580 | 76.84067 | 30121 ft | 494 kts | 340° |
| 2026-05-07 08:06 | 15.30815 | 76.82879 | 30441 ft | 493 kts | 340° |
| 2026-05-07 08:06 | 15.34051 | 76.81690 | 30743 ft | 492 kts | 340° |
| 2026-05-07 08:06 | 15.37272 | 76.80506 | 31057 ft | 492 kts | 340° |
| 2026-05-07 08:06 | 15.40495 | 76.79321 | 31367 ft | 491 kts | 340° |
| 2026-05-07 08:07 | 15.43714 | 76.78137 | 31664 ft | 491 kts | 340° |
| 2026-05-07 08:07 | 15.46932 | 76.76951 | 31964 ft | 491 kts | 340° |
| 2026-05-07 08:07 | 15.50149 | 76.75766 | 32269 ft | 491 kts | 340° |
| 2026-05-07 08:07 | 15.53365 | 76.74582 | 32587 ft | 490 kts | 340° |
| 2026-05-07 08:08 | 15.56577 | 76.73402 | 32912 ft | 490 kts | 340° |
| 2026-05-07 08:08 | 15.59786 | 76.72223 | 33241 ft | 489 kts | 339° |
| 2026-05-07 08:08 | 15.62997 | 76.71041 | 33567 ft | 489 kts | 339° |
| 2026-05-07 08:08 | 15.66152 | 76.69743 | 33904 ft | 488 kts | 332° |
| 2026-05-07 08:09 | 15.69041 | 76.67924 | 34195 ft | 486 kts | 322° |
| 2026-05-07 08:09 | 15.71558 | 76.65602 | 34493 ft | 483 kts | 311° |
| 2026-05-07 08:09 | 15.73690 | 76.62917 | 34796 ft | 482 kts | 307° |
| 2026-05-07 08:09 | 15.75731 | 76.60213 | 35104 ft | 481 kts | 307° |
| 2026-05-07 08:10 | 15.77818 | 76.57445 | 35415 ft | 481 kts | 307° |
| 2026-05-07 08:10 | 15.79849 | 76.54747 | 35728 ft | 480 kts | 307° |
| 2026-05-07 08:10 | 15.81903 | 76.52019 | 36037 ft | 479 kts | 307° |
| 2026-05-07 08:10 | 15.83953 | 76.49294 | 36345 ft | 478 kts | 307° |
| 2026-05-07 08:11 | 15.86000 | 76.46575 | 36652 ft | 477 kts | 307° |
| 2026-05-07 08:11 | 15.88050 | 76.43850 | 36957 ft | 476 kts | 307° |
| 2026-05-07 08:11 | 15.90078 | 76.41152 | 37250 ft | 476 kts | 307° |
| 2026-05-07 08:11 | 15.92111 | 76.38448 | 37549 ft | 475 kts | 307° |
| 2026-05-07 08:12 | 15.94145 | 76.35740 | 37828 ft | 475 kts | 306° |
| 2026-05-07 08:12 | 15.98198 | 76.30336 | 37906 ft | 474 kts | 306° |
| 2026-05-07 08:13 | 16.02242 | 76.24937 | 37905 ft | 473 kts | 306° |
| 2026-05-07 08:13 | 16.06292 | 76.19535 | 37923 ft | 473 kts | 306° |
| 2026-05-07 08:14 | 16.10331 | 76.14131 | 37914 ft | 473 kts | 306° |
| 2026-05-07 08:14 | 16.14387 | 76.08712 | 37923 ft | 475 kts | 307° |
| 2026-05-07 08:15 | 16.18452 | 76.03297 | 37942 ft | 475 kts | 307° |
| 2026-05-07 08:15 | 16.22515 | 75.97869 | 37943 ft | 475 kts | 306° |
| 2026-05-07 08:16 | 16.26566 | 75.92434 | 37949 ft | 475 kts | 306° |
| 2026-05-07 08:16 | 16.30615 | 75.87006 | 37955 ft | 474 kts | 306° |
| 2026-05-07 08:17 | 16.34641 | 75.81597 | 37955 ft | 474 kts | 306° |
| 2026-05-07 08:17 | 16.38685 | 75.76171 | 37956 ft | 474 kts | 306° |
| 2026-05-07 08:18 | 16.42721 | 75.70750 | 37961 ft | 474 kts | 306° |
| 2026-05-07 08:18 | 16.46741 | 75.65342 | 37959 ft | 473 kts | 306° |
| 2026-05-07 08:19 | 16.50798 | 75.59882 | 37958 ft | 473 kts | 306° |
| 2026-05-07 08:19 | 16.54800 | 75.54497 | 37954 ft | 473 kts | 306° |
| 2026-05-07 08:20 | 16.58806 | 75.49104 | 37939 ft | 461 kts | 306° |
| 2026-05-07 08:20 | 16.62674 | 75.43903 | 37943 ft | 450 kts | 306° |
| 2026-05-07 08:21 | 16.66556 | 75.38785 | 37940 ft | 450 kts | 307° |
| 2026-05-07 08:21 | 16.70457 | 75.33669 | 37942 ft | 451 kts | 307° |
| 2026-05-07 08:22 | 16.74332 | 75.28553 | 37939 ft | 450 kts | 306° |
| 2026-05-07 08:22 | 16.78219 | 75.23405 | 37941 ft | 450 kts | 306° |
| 2026-05-07 08:23 | 16.82099 | 75.18269 | 37936 ft | 451 kts | 306° |
| 2026-05-07 08:23 | 16.85969 | 75.13142 | 37949 ft | 451 kts | 306° |
| 2026-05-07 08:24 | 16.89844 | 75.08003 | 37946 ft | 450 kts | 306° |
| 2026-05-07 08:24 | 16.93716 | 75.02865 | 37941 ft | 450 kts | 306° |
| 2026-05-07 08:25 | 16.97571 | 74.97739 | 37935 ft | 450 kts | 306° |
| 2026-05-07 08:25 | 17.01434 | 74.92607 | 37933 ft | 450 kts | 306° |
| 2026-05-07 08:26 | 17.07238 | 74.84897 | 37920 ft | 450 kts | 306° |
| 2026-05-07 08:26 | 17.11090 | 74.79773 | 37921 ft | 449 kts | 306° |
| 2026-05-07 08:27 | 17.14955 | 74.74614 | 37920 ft | 449 kts | 306° |
| 2026-05-07 08:27 | 17.18809 | 74.69467 | 37915 ft | 449 kts | 306° |
| 2026-05-07 08:28 | 17.22659 | 74.64327 | 37914 ft | 448 kts | 306° |
| 2026-05-07 08:28 | 17.26508 | 74.59199 | 37904 ft | 448 kts | 306° |
| 2026-05-07 08:29 | 17.30348 | 74.54067 | 37892 ft | 448 kts | 306° |
| 2026-05-07 08:29 | 17.34182 | 74.48932 | 37749 ft | 448 kts | 306° |
| 2026-05-07 08:30 | 17.36097 | 74.46365 | 37481 ft | 447 kts | 306° |
| 2026-05-07 08:30 | 17.37986 | 74.43833 | 37220 ft | 447 kts | 306° |
| 2026-05-07 08:30 | 17.39898 | 74.41274 | 36973 ft | 447 kts | 306° |
| 2026-05-07 08:30 | 17.41813 | 74.38711 | 36710 ft | 447 kts | 306° |
| 2026-05-07 08:31 | 17.43728 | 74.36150 | 36459 ft | 447 kts | 306° |
| 2026-05-07 08:31 | 17.45643 | 74.33591 | 36218 ft | 447 kts | 307° |
| 2026-05-07 08:31 | 17.47558 | 74.31029 | 35983 ft | 446 kts | 307° |
| 2026-05-07 08:31 | 17.49466 | 74.28469 | 35751 ft | 446 kts | 306° |
| 2026-05-07 08:32 | 17.51371 | 74.25905 | 35511 ft | 445 kts | 306° |
| 2026-05-07 08:32 | 17.53271 | 74.23345 | 35268 ft | 445 kts | 307° |
| 2026-05-07 08:32 | 17.55174 | 74.20784 | 35048 ft | 445 kts | 307° |
| 2026-05-07 08:32 | 17.57077 | 74.18233 | 34816 ft | 444 kts | 307° |
| 2026-05-07 08:33 | 17.58973 | 74.15690 | 34589 ft | 442 kts | 307° |
| 2026-05-07 08:33 | 17.60855 | 74.13166 | 34296 ft | 437 kts | 307° |
| 2026-05-07 08:33 | 17.62720 | 74.10662 | 33796 ft | 436 kts | 307° |
| 2026-05-07 08:33 | 17.64578 | 74.08161 | 33262 ft | 434 kts | 307° |
| 2026-05-07 08:34 | 17.66430 | 74.05663 | 32795 ft | 431 kts | 307° |
| 2026-05-07 08:34 | 17.68263 | 74.03189 | 32298 ft | 428 kts | 307° |
| 2026-05-07 08:34 | 17.70084 | 74.00731 | 31802 ft | 425 kts | 307° |
| 2026-05-07 08:34 | 17.71894 | 73.98296 | 31313 ft | 423 kts | 307° |
| 2026-05-07 08:35 | 17.73697 | 73.95871 | 30826 ft | 420 kts | 307° |
| 2026-05-07 08:35 | 17.75472 | 73.93484 | 30345 ft | 418 kts | 307° |
| 2026-05-07 08:35 | 17.77252 | 73.91085 | 29834 ft | 415 kts | 307° |
| 2026-05-07 08:35 | 17.79009 | 73.88712 | 29310 ft | 405 kts | 307° |
| 2026-05-07 08:36 | 17.80715 | 73.86400 | 28864 ft | 399 kts | 307° |
| 2026-05-07 08:36 | 17.82408 | 73.84108 | 28410 ft | 395 kts | 308° |
| 2026-05-07 08:36 | 17.84088 | 73.81838 | 27974 ft | 392 kts | 308° |
| 2026-05-07 08:36 | 17.85753 | 73.79587 | 27543 ft | 389 kts | 308° |
| 2026-05-07 08:37 | 17.87406 | 73.77350 | 27120 ft | 386 kts | 308° |
| 2026-05-07 08:37 | 17.89045 | 73.75135 | 26703 ft | 383 kts | 308° |
| 2026-05-07 08:37 | 17.90672 | 73.72937 | 26306 ft | 380 kts | 308° |
| 2026-05-07 08:37 | 17.92288 | 73.70754 | 25898 ft | 377 kts | 308° |
| 2026-05-07 08:38 | 17.93890 | 73.68589 | 25495 ft | 374 kts | 308° |
| 2026-05-07 08:38 | 17.95481 | 73.66435 | 25091 ft | 372 kts | 308° |
| 2026-05-07 08:38 | 17.97060 | 73.64297 | 24669 ft | 370 kts | 309° |
| 2026-05-07 08:38 | 17.98633 | 73.62169 | 24254 ft | 368 kts | 309° |
| 2026-05-07 08:39 | 18.00198 | 73.60051 | 23845 ft | 366 kts | 309° |
| 2026-05-07 08:39 | 18.01754 | 73.57940 | 23414 ft | 364 kts | 309° |
| 2026-05-07 08:39 | 18.03298 | 73.55842 | 22928 ft | 362 kts | 309° |
| 2026-05-07 08:39 | 18.04832 | 73.53757 | 22491 ft | 358 kts | 309° |
| 2026-05-07 08:40 | 18.06348 | 73.51699 | 22066 ft | 355 kts | 309° |
| 2026-05-07 08:40 | 18.07855 | 73.49655 | 21625 ft | 353 kts | 308° |
| 2026-05-07 08:40 | 18.09352 | 73.47619 | 21183 ft | 351 kts | 308° |
| 2026-05-07 08:40 | 18.10839 | 73.45597 | 20753 ft | 349 kts | 308° |
| 2026-05-07 08:41 | 18.12319 | 73.43587 | 20325 ft | 348 kts | 308° |
| 2026-05-07 08:41 | 18.13793 | 73.41582 | 19894 ft | 346 kts | 308° |
| 2026-05-07 08:41 | 18.15318 | 73.39643 | 19582 ft | 341 kts | 316° |
| 2026-05-07 08:41 | 18.17157 | 73.38116 | 19339 ft | 335 kts | 329° |
| 2026-05-07 08:42 | 18.19252 | 73.37053 | 18875 ft | 336 kts | 337° |
| 2026-05-07 08:42 | 18.21424 | 73.36093 | 18393 ft | 340 kts | 337° |
| 2026-05-07 08:42 | 18.23615 | 73.35127 | 17863 ft | 343 kts | 337° |
| 2026-05-07 08:42 | 18.25811 | 73.34155 | 17509 ft | 340 kts | 337° |
| 2026-05-07 08:43 | 18.27999 | 73.33180 | 17019 ft | 341 kts | 337° |
| 2026-05-07 08:43 | 18.29437 | 73.32535 | 16814 ft | 338 kts | 337° |
| 2026-05-07 08:43 | 18.31596 | 73.31565 | 16429 ft | 337 kts | 337° |
| 2026-05-07 08:43 | 18.33749 | 73.30599 | 16033 ft | 336 kts | 337° |
| 2026-05-07 08:44 | 18.35893 | 73.29639 | 15598 ft | 333 kts | 337° |
| 2026-05-07 08:44 | 18.38021 | 73.28687 | 14935 ft | 331 kts | 337° |
| 2026-05-07 08:44 | 18.40136 | 73.27743 | 14291 ft | 330 kts | 337° |
| 2026-05-07 08:44 | 18.42240 | 73.26802 | 13695 ft | 327 kts | 337° |
| 2026-05-07 08:45 | 18.44331 | 73.25865 | 13029 ft | 325 kts | 337° |
| 2026-05-07 08:45 | 18.46400 | 73.24938 | 12387 ft | 322 kts | 336° |
| 2026-05-07 08:45 | 18.48451 | 73.24017 | 11820 ft | 317 kts | 336° |
| 2026-05-07 08:45 | 18.50455 | 73.23117 | 11399 ft | 310 kts | 336° |
| 2026-05-07 08:46 | 18.52441 | 73.22227 | 10995 ft | 311 kts | 335° |
| 2026-05-07 08:46 | 18.54432 | 73.21332 | 10606 ft | 312 kts | 335° |
| 2026-05-07 08:46 | 18.56425 | 73.20439 | 10240 ft | 312 kts | 335° |
| 2026-05-07 08:46 | 18.58422 | 73.19545 | 9961 ft | 309 kts | 336° |
| 2026-05-07 08:47 | 18.60386 | 73.18665 | 9672 ft | 306 kts | 335° |
| 2026-05-07 08:47 | 18.62342 | 73.17787 | 9331 ft | 305 kts | 335° |
| 2026-05-07 08:47 | 18.64248 | 73.16932 | 9153 ft | 290 kts | 336° |
| 2026-05-07 08:47 | 18.66083 | 73.16162 | 8799 ft | 280 kts | 343° |
| 2026-05-07 08:48 | 18.67977 | 73.15847 | 8631 ft | 276 kts | 357° |
| 2026-05-07 08:48 | 18.69897 | 73.15796 | 8382 ft | 276 kts | 358° |
| 2026-05-07 08:48 | 18.71816 | 73.15742 | 8150 ft | 275 kts | 358° |
| 2026-05-07 08:48 | 18.73721 | 73.15689 | 7909 ft | 272 kts | 358° |
| 2026-05-07 08:49 | 18.75609 | 73.15639 | 7663 ft | 270 kts | 359° |
| 2026-05-07 08:49 | 18.77442 | 73.15374 | 7520 ft | 262 kts | 341° |
| 2026-05-07 08:49 | 18.79121 | 73.14748 | 7392 ft | 248 kts | 340° |
| 2026-05-07 08:49 | 18.80686 | 73.14154 | 7274 ft | 232 kts | 340° |
| 2026-05-07 08:50 | 18.82167 | 73.13590 | 7159 ft | 221 kts | 340° |
| 2026-05-07 08:50 | 18.83547 | 73.13064 | 7062 ft | 202 kts | 340° |
| 2026-05-07 08:50 | 18.84811 | 73.12582 | 6955 ft | 183 kts | 340° |
| 2026-05-07 08:50 | 18.85939 | 73.12152 | 6840 ft | 165 kts | 340° |
| 2026-05-07 08:51 | 18.86991 | 73.11752 | 6620 ft | 158 kts | 340° |
| 2026-05-07 08:51 | 18.88018 | 73.11361 | 6301 ft | 156 kts | 341° |
| 2026-05-07 08:51 | 18.89038 | 73.10973 | 6005 ft | 154 kts | 341° |
| 2026-05-07 08:51 | 18.90043 | 73.10590 | 5892 ft | 155 kts | 341° |
| 2026-05-07 08:52 | 18.91050 | 73.10205 | 5741 ft | 152 kts | 341° |
| 2026-05-07 08:52 | 18.92027 | 73.09833 | 5416 ft | 151 kts | 340° |
| 2026-05-07 08:52 | 18.93011 | 73.09458 | 5092 ft | 150 kts | 340° |
| 2026-05-07 08:52 | 18.93992 | 73.09083 | 4777 ft | 149 kts | 340° |
| 2026-05-07 08:53 | 18.94957 | 73.08713 | 4461 ft | 147 kts | 340° |
| 2026-05-07 08:53 | 18.95907 | 73.08350 | 4176 ft | 144 kts | 339° |
| 2026-05-07 08:53 | 18.96849 | 73.07991 | 3860 ft | 144 kts | 340° |
| 2026-05-07 08:53 | 18.97779 | 73.07636 | 3584 ft | 141 kts | 339° |
| 2026-05-07 08:54 | 18.98696 | 73.07286 | 3269 ft | 140 kts | 339° |
| 2026-05-07 08:54 | 18.99609 | 73.06938 | 3001 ft | 140 kts | 339° |
| 2026-05-07 08:54 | 19.00519 | 73.06590 | 2895 ft | 138 kts | 338° |
| 2026-05-07 08:54 | 19.01434 | 73.06239 | 2882 ft | 142 kts | 338° |
| 2026-05-07 08:55 | 19.02367 | 73.05883 | 2883 ft | 143 kts | 338° |
| 2026-05-07 08:55 | 19.03300 | 73.05528 | 2872 ft | 141 kts | 339° |
| 2026-05-07 08:55 | 19.04222 | 73.05174 | 2890 ft | 144 kts | 340° |
| 2026-05-07 08:55 | 19.05157 | 73.04817 | 2878 ft | 143 kts | 341° |
| 2026-05-07 08:56 | 19.06103 | 73.04458 | 2871 ft | 143 kts | 339° |
| 2026-05-07 08:56 | 19.07027 | 73.04104 | 2871 ft | 141 kts | 339° |
| 2026-05-07 08:56 | 19.07940 | 73.03722 | 2882 ft | 143 kts | 330° |
| 2026-05-07 08:56 | 19.08677 | 73.03036 | 2754 ft | 143 kts | 305° |
| 2026-05-07 08:57 | 19.09046 | 73.02081 | 2576 ft | 140 kts | 281° |
| 2026-05-07 08:57 | 19.09063 | 73.01056 | 2404 ft | 139 kts | 272° |
| 2026-05-07 08:57 | 19.09049 | 73.00044 | 2232 ft | 137 kts | 272° |
| 2026-05-07 08:57 | 19.09036 | 72.99034 | 2054 ft | 137 kts | 272° |
| 2026-05-07 08:58 | 19.09023 | 72.98028 | 1888 ft | 137 kts | 274° |
| 2026-05-07 08:58 | 19.09009 | 72.97028 | 1712 ft | 136 kts | 272° |
| 2026-05-07 08:58 | 19.08996 | 72.96025 | 1540 ft | 139 kts | 271° |
| 2026-05-07 08:58 | 19.08983 | 72.95014 | 1359 ft | 137 kts | 271° |
| 2026-05-07 08:59 | 19.08969 | 72.94012 | 1186 ft | 136 kts | 271° |
| 2026-05-07 08:59 | 19.08956 | 72.93018 | 1013 ft | 135 kts | 272° |
| 2026-05-07 08:59 | 19.08943 | 72.92032 | 852 ft | 134 kts | 272° |
| 2026-05-07 08:59 | 19.08930 | 72.91048 | 693 ft | 134 kts | 271° |
| 2026-05-07 09:00 | 19.08919 | 72.90067 | 507 ft | 134 kts | 268° |
| 2026-05-07 09:00 | 19.08915 | 72.89086 | 356 ft | 133 kts | 269° |
| 2026-05-07 09:00 | 19.08897 | 72.88119 | 178 ft | 133 kts | 266° |
| 2026-05-07 09:00 | 19.08871 | 72.87170 | 56 ft | 119 kts | 273° |
| 2026-05-07 09:01 | 19.08931 | 72.86289 | 332 ft | 128 kts | 274° |
| 2026-05-07 09:01 | 19.08987 | 72.85262 | 923 ft | 148 kts | 275° |
| 2026-05-07 09:01 | 19.09034 | 72.84112 | 1598 ft | 164 kts | 275° |
| 2026-05-07 09:01 | 19.09069 | 72.82818 | 1811 ft | 185 kts | 275° |
| 2026-05-07 09:02 | 19.09089 | 72.81400 | 2092 ft | 204 kts | 273° |
| 2026-05-07 09:02 | 19.09110 | 72.79876 | 2545 ft | 210 kts | 271° |
| 2026-05-07 09:02 | 19.08724 | 72.78362 | 2814 ft | 221 kts | 242° |
| 2026-05-07 09:02 | 19.07782 | 72.77080 | 2628 ft | 222 kts | 231° |
| 2026-05-07 09:03 | 19.06731 | 72.75871 | 2564 ft | 224 kts | 229° |
| 2026-05-07 09:03 | 19.05454 | 72.74925 | 2576 ft | 230 kts | 200° |
| 2026-05-07 09:03 | 19.03864 | 72.74831 | 2579 ft | 232 kts | 168° |
| 2026-05-07 09:03 | 19.02426 | 72.75560 | 2579 ft | 231 kts | 139° |
| 2026-05-07 09:04 | 19.01477 | 72.76905 | 2580 ft | 230 kts | 109° |
| 2026-05-07 09:04 | 19.01225 | 72.78533 | 2578 ft | 223 kts | 82° |
| 2026-05-07 09:04 | 19.01613 | 72.80094 | 2581 ft | 220 kts | 66° |
| 2026-05-07 09:04 | 19.02113 | 72.81628 | 2582 ft | 221 kts | 68° |
| 2026-05-07 09:05 | 19.02608 | 72.83159 | 2573 ft | 221 kts | 68° |
| 2026-05-07 09:05 | 19.03101 | 72.84685 | 2595 ft | 219 kts | 68° |
| 2026-05-07 09:05 | 19.03589 | 72.86196 | 2578 ft | 218 kts | 68° |
| 2026-05-07 09:05 | 19.04080 | 72.87723 | 2581 ft | 218 kts | 68° |
| 2026-05-07 09:06 | 19.04567 | 72.89240 | 2579 ft | 218 kts | 67° |
| 2026-05-07 09:06 | 19.05052 | 72.90746 | 2577 ft | 212 kts | 69° |
| 2026-05-07 09:06 | 19.05511 | 72.92179 | 2586 ft | 197 kts | 68° |
| 2026-05-07 09:06 | 19.05928 | 72.93484 | 2575 ft | 176 kts | 69° |
| 2026-05-07 09:07 | 19.06299 | 72.94644 | 2583 ft | 157 kts | 66° |
| 2026-05-07 09:07 | 19.06646 | 72.95723 | 2543 ft | 156 kts | 66° |
| 2026-05-07 09:07 | 19.06999 | 72.96811 | 2556 ft | 156 kts | 67° |
| 2026-05-07 09:07 | 19.07349 | 72.97894 | 2554 ft | 155 kts | 68° |
| 2026-05-07 09:08 | 19.07698 | 72.98977 | 2553 ft | 155 kts | 64° |
| 2026-05-07 09:08 | 19.08046 | 73.00053 | 2554 ft | 155 kts | 65° |
| 2026-05-07 09:08 | 19.08396 | 73.01137 | 2548 ft | 156 kts | 65° |
| 2026-05-07 09:08 | 19.08752 | 73.02234 | 2554 ft | 159 kts | 64° |
| 2026-05-07 09:09 | 19.09105 | 73.03330 | 2554 ft | 156 kts | 64° |
| 2026-05-07 09:09 | 19.09666 | 73.04248 | 2560 ft | 146 kts | 23° |
| 2026-05-07 09:09 | 19.10580 | 73.04213 | 2550 ft | 136 kts | 320° |
| 2026-05-07 09:09 | 19.10870 | 73.03310 | 2565 ft | 142 kts | 259° |
| 2026-05-07 09:10 | 19.10315 | 73.02440 | 2506 ft | 147 kts | 234° |
| 2026-05-07 09:10 | 19.09774 | 73.01527 | 2415 ft | 144 kts | 245° |
| 2026-05-07 09:10 | 19.09406 | 73.00587 | 2271 ft | 137 kts | 259° |
| 2026-05-07 09:10 | 19.09218 | 72.99614 | 2120 ft | 137 kts | 264° |
| 2026-05-07 09:11 | 19.09117 | 72.98616 | 1954 ft | 136 kts | 267° |
| 2026-05-07 09:11 | 19.09060 | 72.97619 | 1789 ft | 135 kts | 271° |
| 2026-05-07 09:11 | 19.09025 | 72.96628 | 1619 ft | 135 kts | 271° |
| 2026-05-07 09:11 | 19.09002 | 72.95627 | 1452 ft | 136 kts | 271° |
| 2026-05-07 09:12 | 19.08983 | 72.94631 | 1270 ft | 136 kts | 271° |
| 2026-05-07 09:12 | 19.08967 | 72.93639 | 1095 ft | 134 kts | 270° |
| 2026-05-07 09:12 | 19.08953 | 72.92651 | 931 ft | 134 kts | 272° |
| 2026-05-07 09:12 | 19.08939 | 72.91669 | 781 ft | 134 kts | 272° |
| 2026-05-07 09:13 | 19.08925 | 72.90688 | 616 ft | 133 kts | 271° |
| 2026-05-07 09:13 | 19.08913 | 72.89709 | 410 ft | 133 kts | 269° |
| 2026-05-07 09:13 | 19.08913 | 72.88735 | 249 ft | 130 kts | 270° |
| 2026-05-07 09:13 | 19.08885 | 72.87761 | 118 ft | 131 kts | 270° |
| 2026-05-07 09:14 | 19.08856 | 72.86864 | 55 ft | 108 kts | 278° |
| 2026-05-07 09:14 | 19.08862 | 72.86205 | 47 ft | 72 kts | 269° |
| 2026-05-07 09:14 | 19.08859 | 72.85780 | 48 ft | 46 kts | 272° |
| 2026-05-07 09:14 | 19.08939 | 72.85518 | 49 ft | 30 kts | 294° |
| 2026-05-07 09:15 | 19.09025 | 72.85479 | 49 ft | 4 kts | 66° |
| 2026-05-07 09:15 | 19.09025 | 72.85505 | 49 ft | 5 kts | 86° |
| 2026-05-07 09:15 | 19.09027 | 72.85553 | 49 ft | 8 kts | 86° |
| 2026-05-07 09:15 | 19.09027 | 72.85621 | 49 ft | 11 kts | 90° |
| 2026-05-07 09:16 | 19.09027 | 72.85713 | 49 ft | 15 kts | 89° |
| 2026-05-07 09:16 | 19.09031 | 72.85847 | 49 ft | 21 kts | 88° |
| 2026-05-07 09:16 | 19.09033 | 72.86026 | 48 ft | 27 kts | 89° |
| 2026-05-07 09:16 | 19.09036 | 72.86250 | 48 ft | 33 kts | 89° |
| 2026-05-07 09:17 | 19.09039 | 72.86473 | 49 ft | 25 kts | 89° |
| 2026-05-07 09:17 | 19.09042 | 72.86663 | 50 ft | 27 kts | 90° |
| 2026-05-07 09:17 | 19.09082 | 72.86803 | 50 ft | 18 kts | 40° |
| 2026-05-07 09:17 | 19.09133 | 72.86919 | 50 ft | 18 kts | 84° |
| 2026-05-07 09:18 | 19.09135 | 72.87032 | 50 ft | 15 kts | 90° |
| 2026-05-07 09:18 | 19.09136 | 72.87153 | 50 ft | 18 kts | 89° |
| 2026-05-07 09:18 | 19.09159 | 72.87258 | 49 ft | 13 kts | 41° |
| 2026-05-07 09:18 | 19.09238 | 72.87304 | 48 ft | 15 kts | 71° |
| 2026-05-07 09:19 | 19.09311 | 72.87364 | 49 ft | 17 kts | 357° |
| 2026-05-07 09:19 | 19.09408 | 72.87422 | 49 ft | 11 kts | 50° |
| 2026-05-07 09:19 | 19.09401 | 72.87501 | 49 ft | 13 kts | 129° |
| 2026-05-07 09:19 | 19.09338 | 72.87580 | 49 ft | 15 kts | 131° |
| 2026-05-07 09:20 | 19.09287 | 72.87681 | 49 ft | 17 kts | 79° |
| 2026-05-07 09:20 | 19.09386 | 72.87748 | 49 ft | 19 kts | 24° |
| 2026-05-07 09:20 | 19.09506 | 72.87825 | 49 ft | 22 kts | 26° |
| 2026-05-07 09:20 | 19.09612 | 72.87822 | 49 ft | 13 kts | 289° |
| 2026-05-07 09:21 | 19.09676 | 72.87748 | 49 ft | 15 kts | 311° |
| 2026-05-07 09:21 | 19.09766 | 72.87717 | 49 ft | 16 kts | 30° |
| 2026-05-07 09:21 | 19.09835 | 72.87762 | 49 ft | 0 kts | 31° |
| 2026-05-07 09:21 | 19.09843 | 72.87767 | 49 ft | 3 kts | 27° |
| 2026-05-07 09:22 | 19.09865 | 72.87762 | 47 ft | 4 kts | 318° |
| 2026-05-07 09:22 | 19.09878 | 72.87733 | 49 ft | 2 kts | 298° |
| 2026-05-07 09:22 | 19.09882 | 72.87725 | 47 ft | 0 kts | 298° |